Strona główna
METAR-TAF:

METAR-TAF

Lotnisko :

Platforma wiertnicza

Hoorn-a, Holandia

Szerokość geograficzna: 52-55-05N, Długość geograficzna: 4-09-01E, wysokość: 41 m

Aktualna obserwacja pogody

Raport powstał 23 minut temu, godzina 11:55 UTC
Wiatr 27 kt od północ
Temperatura 7°C
Wilgotność 76%
Ciśnienie 1027 hPa
Widzialność 10 km lub więcej
Rozproszone chmury na wysokości 1500 ft
Przerywane chmury na wysokości 1900 ft

METAR: EHQE 281155Z AUTO 36027KT 9999 SCT015 BKN019 07/03 Q1027

czas: 13:18 (12:18 UTC)


TAF: brakujący

Obserwacja i prognoza pogody dla ponad 4000 lotnisk (raport METAR i TAF).

Dostępne stacje oznaczono żółtymi i czerwonymi punktami na mapie.

Najedź kursorem aby zobaczyć nazwę stacji.

Kliknij aby zobaczyć obserwacje i prognozy pogody.

Aby zmienić mapę: kliknij na zielony przycisk z czarnym krzyżykiem, aby powiększyć; na zielony przycisk z myślnikiem, aby pomniejszyć; na zielone strzałki, aby przejść do map sąsiednich.


METAR-TAF: